sensor_id;sensor_type;location;lat;lon;timestamp;pressure;altitude;pressure_sealevel;temperature;humidity
79612;BME280;69094;48.154;11.536;2023-07-16T00:00:05;95219.97;;;22.35;63.19
79612;BME280;69094;48.154;11.536;2023-07-16T00:02:33;95215.25;;;22.32;63.32
79612;BME280;69094;48.154;11.536;2023-07-16T00:04:58;95215.75;;;22.16;63.62
79612;BME280;69094;48.154;11.536;2023-07-16T00:07:24;95225.25;;;22.15;63.89
79612;BME280;69094;48.154;11.536;2023-07-16T00:09:49;95227.66;;;22.13;64.25
79612;BME280;69094;48.154;11.536;2023-07-16T00:12:14;95222.09;;;22.13;64.47
79612;BME280;69094;48.154;11.536;2023-07-16T00:14:40;95241.88;;;22.15;64.54
79612;BME280;69094;48.154;11.536;2023-07-16T00:17:05;95236.31;;;22.22;64.35
79612;BME280;69094;48.154;11.536;2023-07-16T00:19:30;95232.78;;;22.14;64.87
79612;BME280;69094;48.154;11.536;2023-07-16T00:21:56;95224.47;;;22.14;65.05
79612;BME280;69094;48.154;11.536;2023-07-16T00:24:21;95235.22;;;22.05;65.10
79612;BME280;69094;48.154;11.536;2023-07-16T00:26:46;95236.53;;;21.90;66.14
79612;BME280;69094;48.154;11.536;2023-07-16T00:29:12;95238.91;;;21.91;66.01
79612;BME280;69094;48.154;11.536;2023-07-16T00:31:37;95238.25;;;21.66;67.21
79612;BME280;69094;48.154;11.536;2023-07-16T00:34:03;95243.13;;;21.44;67.59
79612;BME280;69094;48.154;11.536;2023-07-16T00:36:28;95256.47;;;21.63;67.46
79612;BME280;69094;48.154;11.536;2023-07-16T00:38:53;95258.19;;;21.39;67.98
79612;BME280;69094;48.154;11.536;2023-07-16T00:41:19;95282.72;;;21.30;68.60
79612;BME280;69094;48.154;11.536;2023-07-16T00:43:44;95292.19;;;21.40;68.17
79612;BME280;69094;48.154;11.536;2023-07-16T00:46:10;95304.03;;;21.33;68.84
79612;BME280;69094;48.154;11.536;2023-07-16T00:48:36;95319.06;;;21.28;69.02
79612;BME280;69094;48.154;11.536;2023-07-16T00:51:02;95357.09;;;21.10;69.74
79612;BME280;69094;48.154;11.536;2023-07-16T00:53:28;95367.34;;;21.13;69.44
79612;BME280;69094;48.154;11.536;2023-07-16T00:55:54;95400.16;;;21.15;69.55
79612;BME280;69094;48.154;11.536;2023-07-16T00:58:19;95412.81;;;21.19;69.52
79612;BME280;69094;48.154;11.536;2023-07-16T01:00:47;95417.94;;;21.17;69.83
79612;BME280;69094;48.154;11.536;2023-07-16T01:03:14;95414.00;;;21.22;69.48
79612;BME280;69094;48.154;11.536;2023-07-16T01:06:16;95443.63;;;21.25;69.51
79612;BME280;69094;48.154;11.536;2023-07-16T01:09:01;95429.41;;;21.19;70.13
79612;BME280;69094;48.154;11.536;2023-07-16T01:11:28;95454.28;;;21.08;70.52
79612;BME280;69094;48.154;11.536;2023-07-16T01:13:55;95456.69;;;21.03;71.02
79612;BME280;69094;48.154;11.536;2023-07-16T01:16:23;95457.47;;;21.11;70.69
79612;BME280;69094;48.154;11.536;2023-07-16T01:18:49;95450.34;;;20.99;71.21
79612;BME280;69094;48.154;11.536;2023-07-16T01:21:19;95459.03;;;20.94;71.75
79612;BME280;69094;48.154;11.536;2023-07-16T01:29:49;95466.56;;;20.93;71.89
79612;BME280;69094;48.154;11.536;2023-07-16T01:32:17;95466.97;;;21.02;71.34
79612;BME280;69094;48.154;11.536;2023-07-16T01:34:42;95476.03;;;20.92;71.81
79612;BME280;69094;48.154;11.536;2023-07-16T01:37:09;95474.03;;;20.89;72.05
79612;BME280;69094;48.154;11.536;2023-07-16T01:39:34;95488.31;;;21.02;71.57
79612;BME280;69094;48.154;11.536;2023-07-16T01:42:00;95484.72;;;20.91;72.12
79612;BME280;69094;48.154;11.536;2023-07-16T01:44:26;95489.44;;;20.69;72.99
79612;BME280;69094;48.154;11.536;2023-07-16T01:47:15;95497.31;;;20.67;73.27
79612;BME280;69094;48.154;11.536;2023-07-16T01:49:45;95505.25;;;20.79;72.76
79612;BME280;69094;48.154;11.536;2023-07-16T01:52:12;95501.34;;;20.87;72.57
79612;BME280;69094;48.154;11.536;2023-07-16T01:54:37;95483.53;;;20.92;72.36
79612;BME280;69094;48.154;11.536;2023-07-16T01:57:03;95485.13;;;20.93;72.27
79612;BME280;69094;48.154;11.536;2023-07-16T01:59:28;95486.72;;;20.97;72.61
79612;BME280;69094;48.154;11.536;2023-07-16T02:01:53;95498.97;;;20.93;72.74
79612;BME280;69094;48.154;11.536;2023-07-16T02:04:20;95500.53;;;20.83;73.35
79612;BME280;69094;48.154;11.536;2023-07-16T02:06:45;95501.31;;;20.80;73.44
79612;BME280;69094;48.154;11.536;2023-07-16T02:09:11;95491.44;;;20.86;72.85
79612;BME280;69094;48.154;11.536;2023-07-16T02:11:36;95508.03;;;21.04;72.46
79612;BME280;69094;48.154;11.536;2023-07-16T02:14:01;95502.94;;;21.10;72.09
79612;BME280;69094;48.154;11.536;2023-07-16T02:16:27;95497.38;;;21.02;71.83
79612;BME280;69094;48.154;11.536;2023-07-16T02:18:52;95514.78;;;20.99;72.63
79612;BME280;69094;48.154;11.536;2023-07-16T02:21:17;95515.56;;;21.03;72.18
79612;BME280;69094;48.154;11.536;2023-07-16T02:23:43;95509.63;;;20.94;73.02
79612;BME280;69094;48.154;11.536;2023-07-16T02:26:08;95515.94;;;20.91;73.21
79612;BME280;69094;48.154;11.536;2023-07-16T02:28:33;95520.28;;;20.89;73.02
79612;BME280;69094;48.154;11.536;2023-07-16T02:30:59;95499.75;;;20.93;72.67
79612;BME280;69094;48.154;11.536;2023-07-16T02:33:24;95504.91;;;21.05;72.34
79612;BME280;69094;48.154;11.536;2023-07-16T02:35:50;95510.00;;;20.89;72.89
79612;BME280;69094;48.154;11.536;2023-07-16T02:38:17;95508.84;;;20.97;72.41
79612;BME280;69094;48.154;11.536;2023-07-16T02:40:43;95517.94;;;21.08;72.22
79612;BME280;69094;48.154;11.536;2023-07-16T02:43:09;95521.09;;;21.18;71.79
79612;BME280;69094;48.154;11.536;2023-07-16T02:45:34;95520.31;;;21.24;71.55
79612;BME280;69094;48.154;11.536;2023-07-16T02:48:00;95520.72;;;21.23;71.09
79612;BME280;69094;48.154;11.536;2023-07-16T02:50:25;95527.41;;;21.11;71.67
79612;BME280;69094;48.154;11.536;2023-07-16T02:52:50;95538.09;;;21.16;70.95
79612;BME280;69094;48.154;11.536;2023-07-16T02:55:16;95534.94;;;21.14;70.77
79612;BME280;69094;48.154;11.536;2023-07-16T02:57:41;95532.16;;;21.11;70.95
79612;BME280;69094;48.154;11.536;2023-07-16T03:00:07;95529.00;;;21.16;70.83
79612;BME280;69094;48.154;11.536;2023-07-16T03:02:33;95540.47;;;21.21;70.66
79612;BME280;69094;48.154;11.536;2023-07-16T03:04:58;95540.88;;;21.30;70.15
79612;BME280;69094;48.154;11.536;2023-07-16T03:07:23;95549.16;;;21.23;70.42
79612;BME280;69094;48.154;11.536;2023-07-16T03:09:49;95551.13;;;21.26;70.37
79612;BME280;69094;48.154;11.536;2023-07-16T03:12:14;95548.00;;;21.35;69.71
79612;BME280;69094;48.154;11.536;2023-07-16T03:14:39;95553.16;;;21.47;69.76
79612;BME280;69094;48.154;11.536;2023-07-16T03:17:05;95551.56;;;21.54;69.61
79612;BME280;69094;48.154;11.536;2023-07-16T03:19:32;95553.97;;;21.52;69.33
79612;BME280;69094;48.154;11.536;2023-07-16T03:21:57;95550.81;;;21.49;69.42
79612;BME280;69094;48.154;11.536;2023-07-16T03:24:22;95559.88;;;21.57;69.48
79612;BME280;69094;48.154;11.536;2023-07-16T03:26:48;95553.94;;;21.55;69.18
79612;BME280;69094;48.154;11.536;2023-07-16T03:29:13;95551.97;;;21.56;69.29
79612;BME280;69094;48.154;11.536;2023-07-16T03:31:38;95557.13;;;21.43;69.88
79612;BME280;69094;48.154;11.536;2023-07-16T03:34:04;95562.66;;;21.39;69.63
79612;BME280;69094;48.154;11.536;2023-07-16T03:36:29;95562.63;;;21.36;70.17
79612;BME280;69094;48.154;11.536;2023-07-16T03:38:55;95574.88;;;21.38;69.91
79612;BME280;69094;48.154;11.536;2023-07-16T03:41:20;95572.53;;;21.37;69.90
79612;BME280;69094;48.154;11.536;2023-07-16T03:43:45;95573.69;;;21.36;69.68
79612;BME280;69094;48.154;11.536;2023-07-16T03:46:11;95584.81;;;21.50;69.45
79612;BME280;69094;48.154;11.536;2023-07-16T03:48:36;95579.66;;;21.48;69.28
79612;BME280;69094;48.154;11.536;2023-07-16T03:51:02;95579.66;;;21.48;69.13
79612;BME280;69094;48.154;11.536;2023-07-16T03:53:27;95579.22;;;21.28;69.44
79612;BME280;69094;48.154;11.536;2023-07-16T03:55:52;95586.34;;;21.33;69.08
79612;BME280;69094;48.154;11.536;2023-07-16T03:58:18;95582.41;;;21.41;68.90
79612;BME280;69094;48.154;11.536;2023-07-16T04:00:43;95585.94;;;21.31;69.16
79612;BME280;69094;48.154;11.536;2023-07-16T04:03:09;95596.63;;;21.25;68.94
79612;BME280;69094;48.154;11.536;2023-07-16T04:05:34;95598.59;;;21.28;69.02
79612;BME280;69094;48.154;11.536;2023-07-16T04:08:00;95584.41;;;21.48;68.66
79612;BME280;69094;48.154;11.536;2023-07-16T04:10:25;95598.63;;;21.43;68.55
79612;BME280;69094;48.154;11.536;2023-07-16T04:12:51;95604.19;;;21.50;68.62
79612;BME280;69094;48.154;11.536;2023-07-16T04:15:16;95621.16;;;21.41;69.09
79612;BME280;69094;48.154;11.536;2023-07-16T04:17:42;95634.91;;;21.09;70.68
79612;BME280;69094;48.154;11.536;2023-07-16T04:20:07;95641.56;;;20.83;73.04
79612;BME280;69094;48.154;11.536;2023-07-16T04:22:34;95639.50;;;20.58;74.66
79612;BME280;69094;48.154;11.536;2023-07-16T04:25:00;95639.75;;;20.35;76.46
79612;BME280;69094;48.154;11.536;2023-07-16T04:27:25;95645.22;;;20.28;77.54
79612;BME280;69094;48.154;11.536;2023-07-16T04:29:50;95642.00;;;20.19;78.90
79612;BME280;69094;48.154;11.536;2023-07-16T04:32:16;95647.00;;;19.99;79.39
79612;BME280;69094;48.154;11.536;2023-07-16T04:34:41;95641.78;;;19.83;81.20
79612;BME280;69094;48.154;11.536;2023-07-16T04:37:06;95638.78;;;20.06;79.78
79612;BME280;69094;48.154;11.536;2023-07-16T04:39:32;95651.34;;;19.96;80.23
79612;BME280;69094;48.154;11.536;2023-07-16T04:41:57;95654.09;;;19.96;79.96
79612;BME280;69094;48.154;11.536;2023-07-16T04:44:23;95665.88;;;19.90;79.48
79612;BME280;69094;48.154;11.536;2023-07-16T04:46:48;95658.91;;;19.62;79.38
79612;BME280;69094;48.154;11.536;2023-07-16T04:49:14;95658.13;;;19.58;80.68
79612;BME280;69094;48.154;11.536;2023-07-16T04:51:39;95670.72;;;19.55;81.94
79612;BME280;69094;48.154;11.536;2023-07-16T04:54:04;95655.84;;;19.67;81.06
79612;BME280;69094;48.154;11.536;2023-07-16T04:56:30;95655.19;;;19.85;80.40
79612;BME280;69094;48.154;11.536;2023-07-16T04:58:55;95648.16;;;19.91;79.15
79612;BME280;69094;48.154;11.536;2023-07-16T05:01:21;95640.22;;;19.86;78.52
79612;BME280;69094;48.154;11.536;2023-07-16T05:03:46;95641.00;;;19.86;77.33
79612;BME280;69094;48.154;11.536;2023-07-16T05:06:11;95642.44;;;19.69;78.45
79612;BME280;69094;48.154;11.536;2023-07-16T05:08:37;95646.25;;;19.57;79.05
79612;BME280;69094;48.154;11.536;2023-07-16T05:11:03;95641.56;;;19.58;79.96
79612;BME280;69094;48.154;11.536;2023-07-16T05:13:28;95645.94;;;19.63;79.15
79612;BME280;69094;48.154;11.536;2023-07-16T05:15:54;95651.81;;;19.61;79.91
79612;BME280;69094;48.154;11.536;2023-07-16T05:18:19;95654.88;;;19.52;79.70
79612;BME280;69094;48.154;11.536;2023-07-16T05:20:49;95654.94;;;19.59;78.96
79612;BME280;69094;48.154;11.536;2023-07-16T05:23:14;95664.06;;;19.64;78.66
79612;BME280;69094;48.154;11.536;2023-07-16T05:25:45;95655.00;;;19.67;76.77
79612;BME280;69094;48.154;11.536;2023-07-16T05:28:11;95655.78;;;19.64;77.84
79612;BME280;69094;48.154;11.536;2023-07-16T05:30:37;95655.78;;;19.64;78.88
79612;BME280;69094;48.154;11.536;2023-07-16T05:33:02;95662.97;;;19.68;79.57
79612;BME280;69094;48.154;11.536;2023-07-16T05:35:27;95663.03;;;19.79;79.55
79612;BME280;69094;48.154;11.536;2023-07-16T05:37:53;95665.88;;;19.90;79.34
79612;BME280;69094;48.154;11.536;2023-07-16T05:40:18;95661.53;;;19.85;79.82
79612;BME280;69094;48.154;11.536;2023-07-16T05:42:43;95674.13;;;19.83;81.07
79612;BME280;69094;48.154;11.536;2023-07-16T05:45:09;95673.66;;;19.77;80.13
79612;BME280;69094;48.154;11.536;2023-07-16T05:47:34;95679.66;;;19.83;78.96
79612;BME280;69094;48.154;11.536;2023-07-16T05:50:00;95686.31;;;19.82;79.99
79612;BME280;69094;48.154;11.536;2023-07-16T05:52:26;95689.94;;;19.86;79.98
79612;BME280;69094;48.154;11.536;2023-07-16T05:54:51;95678.09;;;19.89;78.40
79612;BME280;69094;48.154;11.536;2023-07-16T05:57:16;95702.84;;;20.22;79.13
79612;BME280;69094;48.154;11.536;2023-07-16T05:59:42;95701.78;;;20.45;77.05
79612;BME280;69094;48.154;11.536;2023-07-16T06:02:07;95711.78;;;20.60;76.71
79612;BME280;69094;48.154;11.536;2023-07-16T06:04:33;95704.19;;;20.50;77.08
79612;BME280;69094;48.154;11.536;2023-07-16T06:06:58;95714.19;;;20.65;77.36
79612;BME280;69094;48.154;11.536;2023-07-16T06:09:23;95703.91;;;20.66;76.50
79612;BME280;69094;48.154;11.536;2023-07-16T06:11:49;95698.25;;;20.52;77.68
79612;BME280;69094;48.154;11.536;2023-07-16T06:14:15;95709.91;;;20.79;77.83
79612;BME280;69094;48.154;11.536;2023-07-16T06:16:40;95708.94;;;20.53;77.85
79612;BME280;69094;48.154;11.536;2023-07-16T06:19:06;95720.16;;;20.78;77.56
79612;BME280;69094;48.154;11.536;2023-07-16T06:21:31;95725.81;;;21.03;75.78
79612;BME280;69094;48.154;11.536;2023-07-16T06:23:57;95716.31;;;21.01;76.03
79612;BME280;69094;48.154;11.536;2023-07-16T06:26:22;95730.19;;;21.08;76.35
79612;BME280;69094;48.154;11.536;2023-07-16T06:28:48;95724.22;;;20.99;76.51
79612;BME280;69094;48.154;11.536;2023-07-16T06:31:16;95718.66;;;20.95;76.19
79612;BME280;69094;48.154;11.536;2023-07-16T06:33:41;95739.19;;;20.94;75.77
79612;BME280;69094;48.154;11.536;2023-07-16T06:36:07;95736.06;;;20.92;75.06
79612;BME280;69094;48.154;11.536;2023-07-16T06:38:32;95733.66;;;20.91;76.14
79612;BME280;69094;48.154;11.536;2023-07-16T06:40:57;95731.66;;;20.84;75.90
79612;BME280;69094;48.154;11.536;2023-07-16T06:43:23;95733.28;;;20.92;75.93
79612;BME280;69094;48.154;11.536;2023-07-16T06:45:49;95724.72;;;21.26;75.15
79612;BME280;69094;48.154;11.536;2023-07-16T06:48:16;95719.72;;;21.82;73.41
79612;BME280;69094;48.154;11.536;2023-07-16T06:50:41;95717.34;;;21.80;71.54
79612;BME280;69094;48.154;11.536;2023-07-16T06:53:07;95724.88;;;21.87;72.29
79612;BME280;69094;48.154;11.536;2023-07-16T06:55:32;95711.81;;;21.94;72.03
79612;BME280;69094;48.154;11.536;2023-07-16T06:57:58;95735.22;;;22.22;69.94
79612;BME280;69094;48.154;11.536;2023-07-16T07:00:23;95734.38;;;22.00;69.77
79612;BME280;69094;48.154;11.536;2023-07-16T07:02:48;95747.84;;;21.94;70.08
79612;BME280;69094;48.154;11.536;2023-07-16T07:05:14;95737.13;;;21.79;70.16
79612;BME280;69094;48.154;11.536;2023-07-16T07:07:39;95737.13;;;21.82;69.95
79612;BME280;69094;48.154;11.536;2023-07-16T07:10:05;95734.75;;;21.70;69.97
79612;BME280;69094;48.154;11.536;2023-07-16T07:12:30;95740.28;;;21.77;68.90
79612;BME280;69094;48.154;11.536;2023-07-16T07:15:02;95740.72;;;22.04;67.53
79612;BME280;69094;48.154;11.536;2023-07-16T07:17:27;95736.75;;;22.66;66.71
79612;BME280;69094;48.154;11.536;2023-07-16T07:19:52;95741.03;;;22.85;63.90
79612;BME280;69094;48.154;11.536;2023-07-16T07:22:18;95731.56;;;22.79;64.10
79612;BME280;69094;48.154;11.536;2023-07-16T07:24:43;95738.66;;;22.98;64.18
79612;BME280;69094;48.154;11.536;2023-07-16T07:27:09;95735.88;;;22.87;63.43
79612;BME280;69094;48.154;11.536;2023-07-16T07:29:35;95741.13;;;22.42;64.16
79612;BME280;69094;48.154;11.536;2023-07-16T07:32:00;95741.56;;;22.26;64.03
79612;BME280;69094;48.154;11.536;2023-07-16T07:34:25;95741.94;;;22.21;64.02
79612;BME280;69094;48.154;11.536;2023-07-16T07:36:51;95737.53;;;22.13;64.01
79612;BME280;69094;48.154;11.536;2023-07-16T07:39:16;95741.09;;;21.96;63.95
79612;BME280;69094;48.154;11.536;2023-07-16T07:41:42;95738.72;;;21.98;64.81
79612;BME280;69094;48.154;11.536;2023-07-16T07:44:07;95734.75;;;22.06;65.04
79612;BME280;69094;48.154;11.536;2023-07-16T07:46:32;95743.91;;;22.28;65.36
79612;BME280;69094;48.154;11.536;2023-07-16T07:48:58;95740.75;;;22.44;63.81
79612;BME280;69094;48.154;11.536;2023-07-16T07:51:23;95737.16;;;22.40;63.28
79612;BME280;69094;48.154;11.536;2023-07-16T07:53:49;95738.34;;;22.42;62.81
79612;BME280;69094;48.154;11.536;2023-07-16T07:56:14;95734.78;;;22.49;62.63
79612;BME280;69094;48.154;11.536;2023-07-16T07:58:39;95728.84;;;22.47;63.04
79612;BME280;69094;48.154;11.536;2023-07-16T08:01:06;95732.41;;;22.54;62.22
79612;BME280;69094;48.154;11.536;2023-07-16T08:03:32;95723.31;;;22.47;63.00
79612;BME280;69094;48.154;11.536;2023-07-16T08:05:57;95731.97;;;22.70;62.35
79612;BME280;69094;48.154;11.536;2023-07-16T08:08:22;95724.03;;;22.72;61.86
79612;BME280;69094;48.154;11.536;2023-07-16T08:10:48;95725.56;;;22.95;62.50
79612;BME280;69094;48.154;11.536;2023-07-16T08:13:13;95725.97;;;23.00;61.42
79612;BME280;69094;48.154;11.536;2023-07-16T08:15:38;95720.78;;;23.10;60.42
79612;BME280;69094;48.154;11.536;2023-07-16T08:18:04;95715.91;;;23.35;61.11
79612;BME280;69094;48.154;11.536;2023-07-16T08:20:29;95716.56;;;23.57;59.96
79612;BME280;69094;48.154;11.536;2023-07-16T08:22:55;95716.16;;;23.59;57.70
79612;BME280;69094;48.154;11.536;2023-07-16T08:25:20;95710.56;;;23.73;59.00
79612;BME280;69094;48.154;11.536;2023-07-16T08:27:46;95712.81;;;23.93;58.30
79612;BME280;69094;48.154;11.536;2023-07-16T08:30:11;95709.53;;;24.05;56.77
79612;BME280;69094;48.154;11.536;2023-07-16T08:32:37;95708.00;;;24.42;55.98
79612;BME280;69094;48.154;11.536;2023-07-16T08:35:02;95718.03;;;24.77;54.60
79612;BME280;69094;48.154;11.536;2023-07-16T08:37:28;95717.06;;;24.95;54.75
79612;BME280;69094;48.154;11.536;2023-07-16T08:39:54;95719.91;;;24.87;53.70
79612;BME280;69094;48.154;11.536;2023-07-16T08:42:19;95702.84;;;24.47;52.15
79612;BME280;69094;48.154;11.536;2023-07-16T08:44:45;95717.53;;;24.44;53.91
79612;BME280;69094;48.154;11.536;2023-07-16T08:47:11;95704.88;;;24.40;53.18
79612;BME280;69094;48.154;11.536;2023-07-16T08:49:39;95689.63;;;25.27;51.10
79612;BME280;69094;48.154;11.536;2023-07-16T08:52:05;95694.38;;;27.22;47.20
79612;BME280;69094;48.154;11.536;2023-07-16T08:54:31;95694.31;;;27.99;44.24
79612;BME280;69094;48.154;11.536;2023-07-16T08:56:57;95693.50;;;27.45;45.08
79612;BME280;69094;48.154;11.536;2023-07-16T08:59:23;95692.25;;;26.67;46.06
79612;BME280;69094;48.154;11.536;2023-07-16T09:01:48;95691.28;;;25.21;50.27
79612;BME280;69094;48.154;11.536;2023-07-16T09:04:16;95706.16;;;25.07;53.12
79612;BME280;69094;48.154;11.536;2023-07-16T09:06:42;95708.56;;;25.05;53.53
79612;BME280;69094;48.154;11.536;2023-07-16T09:09:08;95689.00;;;25.12;49.29
79612;BME280;69094;48.154;11.536;2023-07-16T09:11:33;95676.69;;;25.10;48.51
79612;BME280;69094;48.154;11.536;2023-07-16T09:14:01;95681.31;;;25.54;47.14
79612;BME280;69094;48.154;11.536;2023-07-16T09:16:27;95680.00;;;25.90;46.93
79612;BME280;69094;48.154;11.536;2023-07-16T09:18:52;95695.25;;;25.51;48.77
79612;BME280;69094;48.154;11.536;2023-07-16T09:21:17;95686.38;;;25.32;48.75
79612;BME280;69094;48.154;11.536;2023-07-16T09:23:44;95700.06;;;24.82;51.23
79612;BME280;69094;48.154;11.536;2023-07-16T09:26:09;95685.22;;;24.96;50.49
79612;BME280;69094;48.154;11.536;2023-07-16T09:28:34;95692.53;;;25.17;50.20
79612;BME280;69094;48.154;11.536;2023-07-16T09:31:04;95680.84;;;25.29;50.78
79612;BME280;69094;48.154;11.536;2023-07-16T09:33:31;95690.13;;;25.76;44.78
79612;BME280;69094;48.154;11.536;2023-07-16T09:35:57;95696.53;;;25.73;42.33
79612;BME280;69094;48.154;11.536;2023-07-16T09:38:23;95681.63;;;25.87;42.50
79612;BME280;69094;48.154;11.536;2023-07-16T09:40:52;95680.66;;;25.97;43.49
79612;BME280;69094;48.154;11.536;2023-07-16T09:43:17;95672.44;;;26.14;43.11
79612;BME280;69094;48.154;11.536;2023-07-16T09:45:43;95682.31;;;25.95;43.69
79612;BME280;69094;48.154;11.536;2023-07-16T09:48:09;95670.31;;;26.89;42.49
79612;BME280;69094;48.154;11.536;2023-07-16T09:50:36;95662.91;;;28.40;39.80
79612;BME280;69094;48.154;11.536;2023-07-16T09:53:04;95669.31;;;28.24;38.85
79612;BME280;69094;48.154;11.536;2023-07-16T09:55:31;95665.47;;;28.51;39.17
79612;BME280;69094;48.154;11.536;2023-07-16T09:58:00;95672.47;;;28.72;38.82
79612;BME280;69094;48.154;11.536;2023-07-16T10:00:27;95662.50;;;29.29;38.38
79612;BME280;69094;48.154;11.536;2023-07-16T10:02:54;95664.50;;;30.92;35.33
79612;BME280;69094;48.154;11.536;2023-07-16T10:05:24;95672.88;;;31.58;33.42
79612;BME280;69094;48.154;11.536;2023-07-16T10:07:51;95669.28;;;32.29;31.37
79612;BME280;69094;48.154;11.536;2023-07-16T10:10:17;95667.25;;;31.48;33.82
79612;BME280;69094;48.154;11.536;2023-07-16T10:12:43;95663.13;;;30.14;36.05
79612;BME280;69094;48.154;11.536;2023-07-16T10:15:28;95663.41;;;28.97;39.20
79612;BME280;69094;48.154;11.536;2023-07-16T10:17:54;95664.50;;;28.08;40.27
79612;BME280;69094;48.154;11.536;2023-07-16T10:20:35;95664.69;;;28.18;40.05
79612;BME280;69094;48.154;11.536;2023-07-16T10:23:12;95660.91;;;27.91;40.16
79612;BME280;69094;48.154;11.536;2023-07-16T10:25:38;95664.47;;;27.76;39.95
79612;BME280;69094;48.154;11.536;2023-07-16T10:28:04;95670.13;;;28.99;38.70
79612;BME280;69094;48.154;11.536;2023-07-16T10:30:30;95667.13;;;28.48;39.83
79612;BME280;69094;48.154;11.536;2023-07-16T10:32:55;95656.59;;;29.53;38.11
79612;BME280;69094;48.154;11.536;2023-07-16T10:35:21;95648.84;;;30.68;34.28
79612;BME280;69094;48.154;11.536;2023-07-16T10:37:46;95649.31;;;29.68;34.97
79612;BME280;69094;48.154;11.536;2023-07-16T10:40:13;95657.75;;;28.84;37.64
79612;BME280;69094;48.154;11.536;2023-07-16T10:42:43;95658.69;;;29.36;36.65
79612;BME280;69094;48.154;11.536;2023-07-16T10:45:09;95648.94;;;30.17;34.75
79612;BME280;69094;48.154;11.536;2023-07-16T10:47:37;95646.63;;;29.77;35.36
79612;BME280;69094;48.154;11.536;2023-07-16T10:50:05;95661.09;;;30.27;33.99
79612;BME280;69094;48.154;11.536;2023-07-16T10:52:31;95655.00;;;30.41;34.48
79612;BME280;69094;48.154;11.536;2023-07-16T10:54:57;95643.84;;;29.77;34.40
79612;BME280;69094;48.154;11.536;2023-07-16T10:57:25;95643.13;;;29.35;36.20
79612;BME280;69094;48.154;11.536;2023-07-16T10:59:52;95650.22;;;29.78;35.22
79612;BME280;69094;48.154;11.536;2023-07-16T11:02:20;95654.94;;;29.94;34.79
79612;BME280;69094;48.154;11.536;2023-07-16T11:04:47;95651.09;;;29.49;35.31
79612;BME280;69094;48.154;11.536;2023-07-16T11:07:13;95641.78;;;28.23;37.97
79612;BME280;69094;48.154;11.536;2023-07-16T11:09:42;95647.38;;;30.03;35.42
79612;BME280;69094;48.154;11.536;2023-07-16T11:12:10;95645.31;;;30.77;34.03
79612;BME280;69094;48.154;11.536;2023-07-16T11:14:36;95641.28;;;31.44;32.62
79612;BME280;69094;48.154;11.536;2023-07-16T11:17:06;95645.50;;;30.96;32.46
79612;BME280;69094;48.154;11.536;2023-07-16T11:19:33;95641.63;;;30.67;34.47
79612;BME280;69094;48.154;11.536;2023-07-16T11:22:00;95636.38;;;31.67;32.40
79612;BME280;69094;48.154;11.536;2023-07-16T11:24:25;95631.75;;;32.23;30.98
79612;BME280;69094;48.154;11.536;2023-07-16T11:26:53;95632.25;;;33.22;32.48
79612;BME280;69094;48.154;11.536;2023-07-16T11:29:20;95633.13;;;33.56;30.79
79612;BME280;69094;48.154;11.536;2023-07-16T11:31:49;95630.84;;;33.27;30.79
79612;BME280;69094;48.154;11.536;2023-07-16T11:34:15;95630.69;;;32.94;30.78
79612;BME280;69094;48.154;11.536;2023-07-16T11:36:42;95630.03;;;31.85;32.79
79612;BME280;69094;48.154;11.536;2023-07-16T11:39:07;95622.56;;;30.62;34.91
79612;BME280;69094;48.154;11.536;2023-07-16T11:41:35;95613.66;;;29.81;36.36
79612;BME280;69094;48.154;11.536;2023-07-16T11:44:01;95617.91;;;29.35;37.88
79612;BME280;69094;48.154;11.536;2023-07-16T11:46:33;95622.47;;;30.05;37.85
79612;BME280;69094;48.154;11.536;2023-07-16T11:49:00;95617.25;;;29.82;37.53
79612;BME280;69094;48.154;11.536;2023-07-16T11:51:25;95623.94;;;29.59;37.68
79612;BME280;69094;48.154;11.536;2023-07-16T11:53:51;95614.09;;;29.80;36.56
79612;BME280;69094;48.154;11.536;2023-07-16T11:56:16;95615.09;;;29.48;38.34
79612;BME280;69094;48.154;11.536;2023-07-16T11:58:42;95613.88;;;29.61;37.29
79612;BME280;69094;48.154;11.536;2023-07-16T12:01:07;95613.75;;;31.39;34.99
79612;BME280;69094;48.154;11.536;2023-07-16T12:03:33;95612.97;;;30.73;34.41
79612;BME280;69094;48.154;11.536;2023-07-16T12:05:58;95609.25;;;30.98;35.29
79612;BME280;69094;48.154;11.536;2023-07-16T12:08:24;95609.78;;;31.99;34.03
79612;BME280;69094;48.154;11.536;2023-07-16T12:10:49;95607.03;;;32.17;33.26
79612;BME280;69094;48.154;11.536;2023-07-16T12:13:15;95610.97;;;32.48;33.00
79612;BME280;69094;48.154;11.536;2023-07-16T12:15:40;95607.63;;;32.22;32.91
79612;BME280;69094;48.154;11.536;2023-07-16T12:18:05;95601.50;;;31.95;34.46
79612;BME280;69094;48.154;11.536;2023-07-16T12:20:31;95595.78;;;31.77;34.01
79612;BME280;69094;48.154;11.536;2023-07-16T12:22:56;95591.28;;;30.73;36.30
79612;BME280;69094;48.154;11.536;2023-07-16T12:25:23;95586.78;;;30.19;37.04
79612;BME280;69094;48.154;11.536;2023-07-16T12:27:48;95584.53;;;30.26;37.87
79612;BME280;69094;48.154;11.536;2023-07-16T12:30:14;95587.50;;;29.46;39.09
79612;BME280;69094;48.154;11.536;2023-07-16T12:32:40;95585.44;;;28.66;40.38
79612;BME280;69094;48.154;11.536;2023-07-16T12:35:05;95598.19;;;28.38;41.25
79612;BME280;69094;48.154;11.536;2023-07-16T12:37:31;95592.50;;;28.42;41.11
79612;BME280;69094;48.154;11.536;2023-07-16T12:39:56;95598.50;;;28.86;40.64
79612;BME280;69094;48.154;11.536;2023-07-16T12:42:21;95592.78;;;28.89;39.80
79612;BME280;69094;48.154;11.536;2023-07-16T12:44:47;95598.75;;;29.04;40.12
79612;BME280;69094;48.154;11.536;2023-07-16T12:47:14;95596.91;;;30.51;37.82
79612;BME280;69094;48.154;11.536;2023-07-16T12:49:40;95592.41;;;31.51;35.71